Time;durP1;ratioP1;P1;durP2;ratioP2;P2;SDS_P1;SDS_P2;PMS_P1;PMS_P2;Temp;Humidity;BMP_temperature;BMP_pressure;BME280_temperature;BME280_humidity;BME280_pressure;Samples;Min_cycle;Max_cycle;Signal;HPM_P1;HPM_P2
2022/06/09 00:01:33;;;;;;;;;;;14.60;99.90;;;;;;5093777;28;20085;-68
2022/06/09 00:04:02;;;;;;;75.70;29.90;;;14.10;99.90;;;;;;5093221;28;20407;-71
2022/06/09 00:06:38;;;;;;;66.40;29.55;;;14.40;99.90;;;;;;5093272;28;20097;-71
2022/06/09 00:09:06;;;;;;;57.78;27.27;;;14.10;99.90;;;;;;5093469;28;20098;-71
2022/06/09 00:11:35;;;;;;;59.63;26.95;;;14.80;99.90;;;;;;5093110;28;20101;-70
2022/06/09 00:14:01;;;;;;;55.83;24.77;;;14.50;99.90;;;;;;5093164;28;20062;-71
2022/06/09 00:16:27;;;;;;;46.92;22.63;;;14.30;99.90;;;;;;5093338;28;20123;-70
2022/06/09 00:18:53;;;;;;;;;;;14.50;99.90;;;;;;5093476;28;20048;-69
2022/06/09 00:21:21;;;;;;;46.45;23.33;;;14.20;99.90;;;;;;5092818;28;19920;-70
2022/06/09 00:23:47;;;;;;;57.88;26.83;;;14.70;99.90;;;;;;5058956;28;20056;-71
2022/06/09 00:26:12;;;;;;;;;;;14.10;99.90;;;;;;5093552;28;20048;-71
2022/06/09 00:28:38;;;;;;;61.90;29.40;;;15.70;99.90;;;;;;5093098;28;20018;-69
2022/06/09 00:31:04;;;;;;;80.00;32.28;;;13.80;99.90;;;;;;5092642;28;20088;-71
2022/06/09 00:33:29;;;;;;;;;;;14.70;99.90;;;;;;5092855;28;20044;-70
2022/06/09 00:35:55;;;;;;;86.97;32.80;;;14.40;99.90;;;;;;5092948;28;19941;-71
2022/06/09 00:38:21;;;;;;;;;;;14.50;99.90;;;;;;5093366;28;20040;-68
2022/06/09 00:40:46;;;;;;;77.78;30.58;;;15.00;99.90;;;;;;5092957;28;20287;-68
2022/06/09 00:43:12;;;;;;;81.38;32.10;;;14.40;99.90;;;;;;5093256;28;20040;-68
2022/06/09 00:45:40;;;;;;;;;;;14.20;99.90;;;;;;5093418;28;20380;-70
2022/06/09 00:48:12;;;;;;;81.78;34.22;;;14.60;99.90;;;;;;5074809;28;19927;-69
2022/06/09 00:50:40;;;;;;;88.80;33.63;;;14.30;99.90;;;;;;5092770;28;20044;-69
2022/06/09 00:53:12;;;;;;;84.82;34.42;;;14.40;99.90;;;;;;5074891;28;20044;-69
2022/06/09 00:55:39;;;;;;;57.40;28.30;;;14.40;99.90;;;;;;5092521;28;20511;-69
2022/06/09 00:58:13;;;;;;;54.63;26.05;;;14.10;99.90;;;;;;5092805;28;20376;-69
2022/06/09 01:00:56;;;;;;;65.82;28.80;;;14.70;99.90;;;;;;5092844;28;20438;-69
2022/06/09 01:03:26;;;;;;;58.58;26.58;;;14.20;99.90;;;;;;5092761;28;20185;-69
2022/06/09 01:05:56;;;;;;;57.85;27.70;;;14.10;99.90;;;;;;5092679;28;20492;-69
2022/06/09 01:08:22;;;;;;;73.50;31.67;;;14.10;99.90;;;;;;5092752;28;20048;-69
2022/06/09 01:10:48;;;;;;;79.28;32.15;;;14.10;99.90;;;;;;5092606;28;20415;-68
2022/06/09 01:13:13;;;;;;;;;;;14.40;99.90;;;;;;5092735;28;20131;-70
2022/06/09 01:15:55;;;;;;;83.90;33.55;;;14.30;99.90;;;;;;5092659;28;19927;-69
2022/06/09 01:18:33;;;;;;;75.72;32.92;;;14.20;99.90;;;;;;5092649;28;20052;-69
2022/06/09 01:21:40;;;;;;;73.95;30.60;;;14.10;99.90;;;;;;5092685;28;20048;-70
2022/06/09 01:24:43;;;;;;;85.32;34.30;;;14.20;99.90;;;;;;5092543;28;20044;-70
2022/06/09 01:27:34;;;;;;;79.72;32.88;;;14.30;99.90;;;;;;5074723;28;20052;-70
2022/06/09 01:30:17;;;;;;;96.00;36.35;;;14.30;99.90;;;;;;5092405;28;20239;-68
2022/06/09 01:32:53;;;;;;;100.18;38.10;;;14.40;99.90;;;;;;5074670;28;20265;-69
2022/06/09 01:35:31;;;;;;;83.45;36.00;;;14.40;99.90;;;;;;5092536;28;20100;-69
2022/06/09 01:37:59;;;;;;;90.65;36.00;;;14.50;99.90;;;;;;5092480;28;20055;-70
2022/06/09 01:40:26;;;;;;;87.60;36.03;;;14.90;99.90;;;;;;5092318;28;20105;-69
2022/06/09 01:42:57;;;;;;;87.05;35.38;;;14.50;99.90;;;;;;5092272;28;20047;-69
2022/06/09 01:45:36;;;;;;;101.82;37.10;;;14.50;99.90;;;;;;5094622;28;20534;-69
2022/06/09 01:48:09;;;;;;;96.75;36.75;;;14.50;99.90;;;;;;5096210;28;20151;-68
2022/06/09 01:50:59;;;;;;;63.78;31.05;;;14.60;99.90;;;;;;5095949;28;20126;-68
2022/06/09 01:53:39;;;;;;;61.83;30.27;;;14.60;99.90;;;;;;5096098;28;20400;-69
2022/06/09 01:56:11;;;;;;;76.20;32.45;;;14.40;99.90;;;;;;5096020;28;20434;-68
2022/06/09 01:58:43;;;;;;;66.97;30.77;;;14.50;99.90;;;;;;5095941;28;20495;-68
2022/06/09 02:01:12;;;;;;;74.40;32.67;;;14.50;99.90;;;;;;5095851;28;20036;-68
2022/06/09 02:03:41;;;;;;;71.80;32.65;;;14.40;99.90;;;;;;5095823;28;20097;-69
2022/06/09 02:06:10;;;;;;;70.88;31.35;;;14.40;99.90;;;;;;5077834;28;20044;-69
2022/06/09 02:08:36;;;;;;;46.50;25.67;;;14.60;99.90;;;;;;5095690;28;20048;-69
2022/06/09 02:11:08;;;;;;;52.10;28.67;;;14.30;99.90;;;;;;5095602;28;20048;-69
2022/06/09 02:13:40;;;;;;;45.50;26.00;;;14.60;99.90;;;;;;5095634;28;20130;-69
2022/06/09 02:16:07;;;;;;;52.88;29.40;;;14.50;99.90;;;;;;5095639;28;20047;-68
2022/06/09 02:18:44;;;;;;;55.08;31.35;;;14.30;99.90;;;;;;5095479;28;20101;-69
2022/06/09 02:21:16;;;;;;;82.28;33.58;;;14.30;99.90;;;;;;5095538;28;20048;-70
2022/06/09 02:23:43;;;;;;;87.57;38.70;;;14.00;99.90;;;;;;5077615;28;20399;-70
2022/06/09 02:26:08;;;;;;;93.07;37.47;;;13.90;99.90;;;;;;5077503;28;20442;-69
2022/06/09 02:28:35;;;;;;;89.78;36.22;;;14.30;99.90;;;;;;5095361;28;20052;-69
2022/06/09 02:31:00;;;;;;;71.40;32.78;;;14.70;99.90;;;;;;5094786;28;20055;-69
2022/06/09 02:33:26;;;;;;;41.58;23.70;;;14.30;99.90;;;;;;5077166;28;20047;-70
2022/06/09 02:35:52;;;;;;;;;;;14.70;99.90;;;;;;5077772;28;20094;-70
2022/06/09 02:38:19;;;;;;;36.75;20.52;;;14.10;99.90;;;;;;5077034;28;19946;-70
2022/06/09 02:40:45;;;;;;;30.48;19.13;;;14.20;99.90;;;;;;5095119;28;20036;-70
2022/06/09 02:43:13;;;;;;;;;;;13.80;99.90;;;;;;5095495;28;20083;-70
2022/06/09 02:45:38;;;;;;;;;;;14.00;99.90;;;;;;5077650;28;19969;-70
2022/06/09 02:48:05;;;;;;;35.00;20.60;;;14.10;99.90;;;;;;5094950;28;19924;-70
2022/06/09 02:50:31;;;;;;;;;;;14.10;99.90;;;;;;5077339;28;20059;-70
2022/06/09 02:52:57;;;;;;;39.85;22.48;;;13.60;99.90;;;;;;5094926;28;19927;-69
2022/06/09 02:55:23;;;;;;;68.20;29.58;;;14.00;99.90;;;;;;5094762;28;20056;-70
2022/06/09 02:57:49;;;;;;;74.45;31.75;;;13.90;99.90;;;;;;5094212;28;20468;-69
2022/06/09 03:00:15;;;;;;;81.50;33.58;;;13.70;99.90;;;;;;5094776;28;20542;-70
2022/06/09 03:02:56;;;;;;;80.95;32.65;;;14.10;99.90;;;;;;5094664;28;20476;-70
2022/06/09 03:05:23;;;;;;;73.50;31.55;;;13.80;99.90;;;;;;5094717;28;20145;-70
2022/06/09 03:07:49;;;;;;;87.82;33.58;;;14.00;99.90;;;;;;5076481;28;20449;-70
2022/06/09 03:10:15;;;;;;;;;;;14.10;99.90;;;;;;5094998;28;20128;-70
2022/06/09 03:12:40;;;;;;;91.03;33.88;;;14.00;99.90;;;;;;5076231;28;19993;-70
2022/06/09 03:15:08;;;;;;;79.72;33.90;;;14.60;99.90;;;;;;5094492;28;20047;-70
2022/06/09 03:17:37;;;;;;;83.82;33.63;;;14.00;99.90;;;;;;5094420;28;20052;-70
2022/06/09 03:20:05;;;;;;;82.72;34.85;;;13.90;99.90;;;;;;5094027;28;20481;-69
2022/06/09 03:22:31;;;;;;;76.68;32.20;;;14.00;99.90;;;;;;5093891;28;20488;-70
2022/06/09 03:24:56;;;;;;;79.70;31.45;;;14.00;99.90;;;;;;5076215;28;20055;-70
2022/06/09 03:27:22;;;;;;;;;;;14.10;99.90;;;;;;5076569;28;20044;-69
2022/06/09 03:29:48;;;;;;;70.78;28.98;;;14.00;99.90;;;;;;5093879;28;19926;-69
2022/06/09 03:32:13;;;;;;;;;;;14.00;99.90;;;;;;5094518;28;20067;-70
2022/06/09 03:34:39;;;;;;;75.47;30.23;;;13.70;99.90;;;;;;5094292;28;20018;-70
2022/06/09 03:37:04;;;;;;;82.38;30.35;;;14.10;99.90;;;;;;5094138;28;20044;-70
2022/06/09 03:39:30;;;;;;;93.38;32.90;;;14.20;99.90;;;;;;5093705;28;20044;-70
2022/06/09 03:41:56;;;;;;;100.47;34.72;;;13.80;99.90;;;;;;5093975;28;20042;-70
2022/06/09 03:44:21;;;;;;;101.50;35.40;;;14.00;99.90;;;;;;5076037;28;20131;-70
2022/06/09 03:46:47;;;;;;;;;;;14.40;99.90;;;;;;5093975;28;20075;-70
2022/06/09 03:49:13;;;;;;;94.95;35.00;;;13.90;99.90;;;;;;5093800;28;19973;-70
2022/06/09 03:51:38;;;;;;;96.40;35.60;;;14.10;99.90;;;;;;5093673;28;20088;-70
2022/06/09 03:54:04;;;;;;;;;;;14.00;99.90;;;;;;5094142;28;20508;-69
2022/06/09 03:56:30;;;;;;;80.78;34.42;;;13.90;99.90;;;;;;5093740;28;20014;-70
2022/06/09 03:58:55;;;;;;;;;;;13.70;99.90;;;;;;5093773;28;20048;-70
2022/06/09 04:01:21;;;;;;;79.30;34.97;;;14.30;99.90;;;;;;5093599;28;19927;-69
2022/06/09 04:03:48;;;;;;;93.68;35.83;;;14.10;99.90;;;;;;5075730;28;20492;-69
2022/06/09 04:06:25;;;;;;;78.28;34.35;;;13.70;99.90;;;;;;5093403;28;20488;-69
2022/06/09 04:08:51;;;;;;;80.68;33.17;;;14.10;99.90;;;;;;5092609;28;20056;-69
2022/06/09 04:11:19;;;;;;;81.93;33.00;;;14.30;99.90;;;;;;5093425;28;20090;-69
2022/06/09 04:13:44;;;;;;;75.97;32.30;;;14.20;99.90;;;;;;5093400;28;20048;-69
2022/06/09 04:16:23;;;;;;;64.95;31.23;;;14.20;99.90;;;;;;5093308;28;20487;-69
2022/06/09 04:18:50;;;;;;;61.20;29.98;;;13.80;99.90;;;;;;5093419;28;20110;-69
2022/06/09 04:21:16;;;;;;;56.33;26.70;;;14.10;99.90;;;;;;5093280;28;20040;-69
2022/06/09 04:23:42;;;;;;;43.05;23.30;;;14.30;99.90;;;;;;5093211;28;20498;-69
2022/06/09 04:26:15;;;;;;;37.80;21.52;;;14.30;99.90;;;;;;5092812;28;20472;-68
2022/06/09 04:28:41;;;;;;;36.78;20.27;;;13.90;99.90;;;;;;5092946;28;20054;-68
2022/06/09 04:31:08;;;;;;;32.88;17.58;;;14.40;99.90;;;;;;5092743;28;20048;-69
2022/06/09 04:33:33;;;;;;;36.10;19.83;;;14.20;99.90;;;;;;5093024;28;20109;-70
2022/06/09 04:35:59;;;;;;;36.15;19.33;;;14.10;99.90;;;;;;5075294;28;20052;-70
2022/06/09 04:38:25;;;;;;;;;;;13.90;99.90;;;;;;5093539;28;20093;-69
2022/06/09 04:40:50;;;;;;;35.28;18.65;;;14.50;99.90;;;;;;5093092;28;19920;-69
2022/06/09 04:43:16;;;;;;;22.55;14.48;;;14.20;99.90;;;;;;5092982;28;20039;-69
2022/06/09 04:45:42;;;;;;;;;;;14.30;99.90;;;;;;5093428;28;20127;-69
2022/06/09 04:48:10;;;;;;;27.27;15.88;;;14.10;99.90;;;;;;5092936;28;20313;-69
2022/06/09 04:50:36;;;;;;;24.50;15.00;;;14.30;99.90;;;;;;5092815;28;20051;-69
2022/06/09 04:53:02;;;;;;;23.25;15.10;;;14.90;99.90;;;;;;5092874;28;20059;-69
2022/06/09 04:55:28;;;;;;;30.20;16.17;;;14.20;99.90;;;;;;5092836;28;20048;-69
2022/06/09 04:57:54;;;;;;;21.73;14.73;;;14.00;99.90;;;;;;5092526;28;20074;-69
2022/06/09 05:00:20;;;;;;;21.40;13.85;;;14.50;99.90;;;;;;5092773;28;20480;-69
2022/06/09 05:02:46;;;;;;;20.00;13.38;;;14.00;99.90;;;;;;5092861;28;20054;-69
2022/06/09 05:05:19;;;;;;;18.27;12.73;;;14.20;99.90;;;;;;5092736;28;20040;-69
2022/06/09 05:07:45;;;;;;;21.20;12.75;;;14.00;99.90;;;;;;5092883;28;20450;-69
2022/06/09 05:10:10;;;;;;;23.20;13.43;;;14.30;99.90;;;;;;5092730;28;20040;-69
2022/06/09 05:12:36;;;;;;;;;;;14.20;99.90;;;;;;5093013;28;20522;-69
2022/06/09 05:15:03;;;;;;;17.65;11.77;;;14.10;99.90;;;;;;5092588;28;19974;-68
2022/06/09 05:17:29;;;;;;;17.10;11.93;;;14.40;99.90;;;;;;5092610;28;20050;-69
2022/06/09 05:19:55;;;;;;;20.20;12.73;;;14.50;99.90;;;;;;5094209;28;20048;-69
2022/06/09 05:22:20;;;;;;;20.17;12.82;;;14.60;99.90;;;;;;5096634;28;20051;-69
2022/06/09 05:24:46;;;;;;;;;;;14.50;99.90;;;;;;5097018;28;20043;-68
2022/06/09 05:27:12;;;;;;;31.23;17.02;;;14.50;99.90;;;;;;5096533;28;20015;-68
2022/06/09 05:29:38;;;;;;;41.70;19.80;;;14.60;99.90;;;;;;5096634;28;20044;-68
2022/06/09 05:32:03;;;;;;;;;;;14.70;99.90;;;;;;5096791;28;20474;-69
2022/06/09 05:34:30;;;;;;;55.25;25.35;;;14.70;99.90;;;;;;5096459;28;20019;-68
2022/06/09 05:36:57;;;;;;;53.75;24.23;;;14.70;99.90;;;;;;5096374;28;20368;-69
2022/06/09 05:44:55;;;;;;;46.58;24.10;;;15.00;99.90;;;;;;5096285;28;20055;-68
2022/06/09 05:47:22;;;;;;;48.60;25.50;;;14.40;99.90;;;;;;5096210;28;20044;-68
2022/06/09 05:49:49;;;;;;;52.28;28.23;;;14.90;99.90;;;;;;5088291;28;20048;-68
2022/06/09 05:52:20;;;;;;;56.30;29.38;;;15.00;99.90;;;;;;5092900;28;20084;-68
2022/06/09 05:54:46;;;;;;;63.15;32.55;;;14.70;99.90;;;;;;5075753;28;20487;-69
2022/06/09 05:57:11;;;;;;;;;;;15.00;99.90;;;;;;5092702;28;20071;-69
2022/06/09 05:59:37;;;;;;;56.55;33.05;;;14.80;99.90;;;;;;5092916;28;20027;-68
2022/06/09 06:02:05;;;;;;;56.20;32.95;;;15.10;99.90;;;;;;5093360;28;20113;-68
2022/06/09 06:04:31;;;;;;;40.67;25.23;;;15.30;99.90;;;;;;5073985;28;20101;-68
2022/06/09 06:06:57;;;;;;;;;;;15.00;99.90;;;;;;5092798;28;20071;-69
2022/06/09 06:09:23;;;;;;;30.63;19.70;;;14.90;99.90;;;;;;5093379;28;20234;-68
2022/06/09 06:11:49;;;;;;;;;;;14.90;99.90;;;;;;5092740;28;20119;-68
2022/06/09 06:14:16;;;;;;;33.00;22.10;;;15.10;99.90;;;;;;5092934;28;19927;-69
2022/06/09 06:16:42;;;;;;;32.67;19.42;;;14.90;99.90;;;;;;5089195;28;20044;-69
2022/06/09 06:19:12;;;;;;;27.13;20.17;;;15.60;99.90;;;;;;5091408;28;20128;-68
2022/06/09 06:21:39;;;;;;;28.55;20.20;;;15.30;99.90;;;;;;5092784;28;20043;-67
2022/06/09 06:24:05;;;;;;;33.30;20.95;;;15.20;99.90;;;;;;5092814;28;20086;-67
2022/06/09 06:26:32;;;;;;;26.05;18.80;;;15.40;99.90;;;;;;5074050;28;20483;-69
2022/06/09 06:28:58;;;;;;;24.88;17.50;;;15.50;99.90;;;;;;5092026;28;20079;-68
2022/06/09 06:31:23;;;;;;;;;;;15.60;99.90;;;;;;5091957;28;20095;-68
2022/06/09 06:33:49;;;;;;;31.98;19.42;;;14.80;99.90;;;;;;5091951;28;19920;-68
2022/06/09 06:36:15;;;;;;;;;;;15.70;99.90;;;;;;5092750;28;20051;-68
2022/06/09 06:38:41;;;;;;;20.98;14.38;;;15.60;99.90;;;;;;5091764;28;19937;-69
2022/06/09 06:41:07;;;;;;;;;;;15.60;99.90;;;;;;5092305;28;20491;-68
2022/06/09 06:43:33;;;;;;;24.80;15.70;;;15.40;99.90;;;;;;5092953;28;19974;-68
2022/06/09 06:46:00;;;;;;;;;;;15.40;99.90;;;;;;5092844;28;20048;-69
2022/06/09 06:48:25;;;;;;;18.17;13.27;;;15.80;99.90;;;;;;5090460;28;20076;-69
2022/06/09 06:50:51;;;;;;;;;;;15.40;99.90;;;;;;5093710;28;20410;-68
2022/06/09 06:53:17;;;;;;;19.48;14.25;;;15.50;99.90;;;;;;5094625;28;19924;-69
2022/06/09 06:55:42;;;;;;;;;;;15.50;99.90;;;;;;5095231;28;20051;-69
2022/06/09 06:58:09;;;;;;;14.70;11.70;;;15.30;99.90;;;;;;5094737;28;19920;-69
2022/06/09 07:00:34;;;;;;;;;;;15.50;99.90;;;;;;5095157;28;20411;-69
2022/06/09 07:03:00;;;;;;;16.65;12.10;;;15.50;99.90;;;;;;5094694;28;19920;-68
2022/06/09 07:05:26;;;;;;;;;;;15.80;99.90;;;;;;5095006;28;20074;-69
2022/06/09 07:07:53;;;;;;;14.10;9.68;;;16.00;99.90;;;;;;5094620;28;19924;-68
2022/06/09 07:10:19;;;;;;;13.95;9.13;;;15.90;99.90;;;;;;5076580;28;20050;-69
2022/06/09 07:12:44;;;;;;;;;;;16.00;99.90;;;;;;5094813;28;20123;-69
2022/06/09 07:15:13;;;;;;;12.40;8.80;;;16.30;99.90;;;;;;5094075;28;19973;-69
2022/06/09 07:17:39;;;;;;;14.27;8.63;;;16.10;99.90;;;;;;5094410;28;20051;-69
2022/06/09 07:20:06;;;;;;;;;;;16.40;99.90;;;;;;5094636;28;20396;-69
2022/06/09 07:22:31;;;;;;;12.90;8.90;;;16.10;99.90;;;;;;5076051;28;19924;-68
2022/06/09 07:24:57;;;;;;;;;;;16.30;99.90;;;;;;5076444;28;20567;-68
2022/06/09 07:27:24;;;;;;;11.85;9.15;;;16.40;99.90;;;;;;5094099;28;19927;-68
2022/06/09 07:29:50;;;;;;;12.13;8.13;;;16.30;99.90;;;;;;5093977;28;20043;-67
2022/06/09 07:32:16;;;;;;;11.32;7.30;;;16.30;99.90;;;;;;5094017;28;20084;-68
2022/06/09 07:34:41;;;;;;;;;;;16.40;99.90;;;;;;5094487;28;20090;-68
2022/06/09 07:37:08;;;;;;;13.85;8.80;;;16.50;99.90;;;;;;5094270;28;20275;-68
2022/06/09 07:39:35;;;;;;;13.98;9.60;;;16.80;99.90;;;;;;5093909;28;20043;-68
2022/06/09 07:42:01;;;;;;;12.52;8.63;;;16.70;99.90;;;;;;5093751;28;20462;-68
2022/06/09 07:44:26;;;;;;;;;;;16.70;99.90;;;;;;5094297;28;20047;-68
2022/06/09 07:46:52;;;;;;;18.20;9.52;;;16.90;99.90;;;;;;5093811;28;20398;-68
2022/06/09 07:49:18;;;;;;;;;;;16.80;99.90;;;;;;5075795;28;20044;-68
2022/06/09 07:51:44;;;;;;;12.65;8.20;;;16.90;99.90;;;;;;5093696;28;19924;-67
2022/06/09 07:54:09;;;;;;;;;;;17.00;99.90;;;;;;5094073;28;20142;-68
2022/06/09 07:56:35;;;;;;;10.18;6.03;;;17.00;99.90;;;;;;5093615;28;19920;-67
2022/06/09 07:59:08;;;;;;;10.57;5.95;;;17.00;99.90;;;;;;5093542;28;20113;-67
2022/06/09 08:01:35;;;;;;;9.57;4.22;;;17.20;99.90;;;;;;5093585;28;20483;-68
2022/06/09 08:04:01;;;;;;;8.60;3.30;;;17.50;99.90;;;;;;5093495;28;20094;-68
2022/06/09 08:06:27;;;;;;;5.20;3.33;;;17.40;99.90;;;;;;5093489;28;20048;-67
2022/06/09 08:08:55;;;;;;;;;;;17.70;99.90;;;;;;5093524;28;20544;-68
2022/06/09 08:11:21;;;;;;;12.50;4.22;;;17.80;99.90;;;;;;5093248;28;19927;-69
2022/06/09 08:13:48;;;;;;;7.35;3.40;;;17.60;99.90;;;;;;5093292;28;20040;-67
2022/06/09 08:16:14;;;;;;;8.30;3.60;;;17.60;99.90;;;;;;5092965;28;20484;-67
2022/06/09 08:18:39;;;;;;;7.28;3.40;;;17.70;99.90;;;;;;5093218;28;20044;-68
2022/06/09 08:21:05;;;;;;;;;;;17.80;99.90;;;;;;5093680;28;20040;-67
2022/06/09 08:23:31;;;;;;;7.13;2.70;;;17.70;99.90;;;;;;5093300;28;19931;-67
2022/06/09 08:26:03;;;;;;;;;;;17.80;99.90;;;;;;5093644;28;20065;-67
2022/06/09 08:28:28;;;;;;;6.63;2.80;;;17.70;99.90;;;;;;5093184;28;19920;-67
2022/06/09 08:30:55;;;;;;;;;;;17.80;99.90;;;;;;5093296;28;20060;-67
2022/06/09 08:33:23;;;;;;;6.95;3.05;;;17.50;99.90;;;;;;5109092;28;19920;-66
2022/06/09 08:35:49;;;;;;;8.25;2.92;;;17.70;99.90;;;;;;5093061;28;20044;-67
2022/06/09 08:38:15;;;;;;;9.00;3.35;;;18.20;99.90;;;;;;5092994;28;20407;-67
2022/06/09 08:41:19;;;;;;;;;;;17.90;99.90;;;;;;5093088;28;20407;-66
2022/06/09 08:44:04;;;;;;;8.55;2.90;;;17.90;99.90;;;;;;5030284;28;19925;-66
2022/06/09 08:46:47;;;;;;;11.68;3.15;;;18.30;99.90;;;;;;5013945;28;20061;-65
2022/06/09 08:49:38;;;;;;;9.07;3.30;;;18.40;99.90;;;;;;5074350;28;20059;-68
2022/06/09 08:52:15;;;;;;;9.95;2.83;;;18.00;99.90;;;;;;5092769;28;20044;-66
2022/06/09 08:54:42;;;;;;;8.73;2.90;;;18.30;99.90;;;;;;5092289;28;20055;-66
2022/06/09 08:57:17;;;;;;;8.07;2.53;;;18.60;99.90;;;;;;5074837;28;20514;-67
2022/06/09 08:59:45;;;;;;;10.07;2.88;;;18.30;99.90;;;;;;5092512;28;20464;-67
2022/06/09 09:02:25;;;;;;;11.93;2.72;;;18.40;99.90;;;;;;5092689;28;20040;-66
2022/06/09 09:05:03;;;;;;;13.68;3.55;;;18.00;99.90;;;;;;5092726;28;20044;-65
2022/06/09 09:07:31;;;;;;;10.60;3.30;;;18.30;99.90;;;;;;5092709;28;20048;-66
2022/06/09 09:10:11;;;;;;;10.48;2.75;;;18.30;99.90;;;;;;5092654;28;20091;-65
2022/06/09 09:13:01;;;;;;;12.65;2.33;;;18.50;99.90;;;;;;5092557;28;20051;-65
2022/06/09 09:15:37;;;;;;;10.25;2.30;;;19.00;99.90;;;;;;5092670;28;20488;-65
2022/06/09 09:18:26;;;;;;;9.77;2.30;;;18.60;99.90;;;;;;5092658;28;20048;-66
2022/06/09 09:21:04;;;;;;;10.90;2.53;;;18.70;99.90;;;;;;5092474;28;20476;-65
2022/06/09 09:23:46;;;;;;;10.48;2.72;;;19.10;99.90;;;;;;5092582;28;20044;-65
2022/06/09 09:26:23;;;;;;;11.90;2.90;;;18.60;99.90;;;;;;5092535;28;20066;-67
2022/06/09 09:29:00;;;;;;;9.15;2.65;;;18.50;99.90;;;;;;5092456;28;20051;-66
2022/06/09 09:31:42;;;;;;;9.15;2.50;;;18.90;99.90;;;;;;5092067;28;20044;-64
2022/06/09 09:34:18;;;;;;;9.43;2.20;;;18.90;99.90;;;;;;5092512;28;20122;-65
2022/06/09 09:36:48;;;;;;;8.67;2.37;;;18.60;99.90;;;;;;5092432;28;20098;-65
2022/06/09 09:39:22;;;;;;;16.02;2.90;;;18.50;99.90;;;;;;5092351;28;20286;-65
2022/06/09 09:41:48;;;;;;;9.35;2.50;;;18.90;99.90;;;;;;5092047;28;20492;-65
2022/06/09 09:44:26;;;;;;;11.07;2.83;;;19.20;99.90;;;;;;5092281;28;20412;-64
2022/06/09 09:46:54;;;;;;;10.77;2.47;;;19.10;99.90;;;;;;5092189;28;20048;-64
2022/06/09 09:49:22;;;;;;;8.18;3.05;;;18.80;99.90;;;;;;5072452;28;20522;-65
2022/06/09 09:51:48;;;;;;;8.02;2.30;;;19.20;99.90;;;;;;5089863;28;20044;-67
2022/06/09 09:54:36;;;;;;;8.77;2.20;;;18.90;99.90;;;;;;5089875;28;20048;-65
2022/06/09 09:57:22;;;;;;;14.00;2.38;;;18.90;99.90;;;;;;5091009;28;20044;-64
2022/06/09 09:59:52;;;;;;;7.47;1.90;;;19.10;99.90;;;;;;5091503;28;20578;-64
2022/06/09 10:08:41;;;;;;;7.95;2.63;;;19.40;99.90;;;;;;5088717;28;20071;-65
2022/06/09 10:11:54;;;;;;;9.52;2.20;;;18.70;99.90;;;;;;5095661;28;20115;-64
2022/06/09 10:14:42;;;;;;;14.10;2.83;;;19.00;99.90;;;;;;5088345;28;20553;-65
2022/06/09 10:17:46;;;;;;;8.45;2.53;;;19.10;99.90;;;;;;5095692;28;20059;-64
2022/06/09 10:20:33;;;;;;;7.97;2.13;;;19.40;99.90;;;;;;5095166;28;20476;-64
2022/06/09 10:23:01;;;;;;;12.05;2.70;;;19.30;99.90;;;;;;5094977;28;20498;-65
2022/06/09 10:25:33;;;;;;;11.35;2.40;;;19.50;99.90;;;;;;5095467;28;20395;-65
2022/06/09 10:28:17;;;;;;;12.70;2.13;;;19.50;99.90;;;;;;5095286;28;20495;-64
2022/06/09 10:31:08;;;;;;;11.20;2.40;;;19.20;99.90;;;;;;5095153;28;20063;-65
2022/06/09 10:33:33;;;;;;;8.85;1.90;;;19.20;99.90;;;;;;5080819;28;20060;-64
2022/06/09 10:36:07;;;;;;;9.18;2.40;;;18.70;99.90;;;;;;5095285;28;20048;-66
2022/06/09 10:39:13;;;;;;;9.13;2.35;;;19.50;99.90;;;;;;5095208;28;20498;-65
2022/06/09 10:41:45;;;;;;;15.18;2.45;;;19.00;99.90;;;;;;5012531;28;20054;-65
2022/06/09 10:44:26;;;;;;;7.18;2.20;;;18.70;99.90;;;;;;5066837;28;20063;-64
2022/06/09 10:55:44;;;;;;;11.25;2.10;;;19.60;99.90;;;;;;5094815;28;20055;-65
2022/06/09 10:58:34;;;;;;;11.48;2.22;;;19.60;99.90;;;;;;5094792;28;20594;-66
2022/06/09 11:01:00;;;;;;;11.20;2.10;;;19.80;99.90;;;;;;5094759;28;20395;-65
2022/06/09 11:03:31;;;;;;;8.13;2.10;;;19.90;99.90;;;;;;5094579;28;20044;-65
2022/06/09 11:06:20;;;;;;;10.25;2.10;;;19.50;99.90;;;;;;5094643;28;20054;-65
2022/06/09 11:09:02;;;;;;;10.25;1.98;;;19.40;99.90;;;;;;5076757;28;20134;-64
2022/06/09 11:11:33;;;;;;;7.35;2.30;;;19.50;99.90;;;;;;5094778;28;20097;-65
2022/06/09 11:14:17;;;;;;;10.88;2.10;;;19.50;99.90;;;;;;5094155;28;20488;-65
2022/06/09 11:16:52;;;;;;;9.90;2.40;;;19.40;99.90;;;;;;5094295;28;20044;-68
2022/06/09 11:19:44;;;;;;;8.98;2.22;;;19.00;99.90;;;;;;5076219;28;20105;-64
2022/06/09 11:22:44;;;;;;;8.40;2.72;;;19.00;99.90;;;;;;5094280;28;20044;-67
2022/06/09 11:25:25;;;;;;;9.88;1.73;;;18.70;99.90;;;;;;5094261;28;20135;-68
2022/06/09 11:28:16;;;;;;;10.68;1.77;;;18.70;99.90;;;;;;5094255;28;20080;-64
2022/06/09 11:31:16;;;;;;;7.68;1.77;;;19.20;99.90;;;;;;5093868;28;20060;-65
2022/06/09 11:34:01;;;;;;;6.85;1.88;;;19.00;99.90;;;;;;5076192;28;20148;-64
2022/06/09 11:37:02;;;;;;;7.60;1.50;;;18.90;99.90;;;;;;5094132;28;20044;-64
2022/06/09 11:39:42;;;;;;;8.32;1.75;;;19.40;99.90;;;;;;5093928;28;20044;-64
2022/06/09 11:42:29;;;;;;;8.20;1.63;;;19.40;99.90;;;;;;5093885;28;20123;-65
2022/06/09 11:44:58;;;;;;;5.43;1.75;;;19.20;99.90;;;;;;5075763;28;20621;-64
2022/06/09 11:47:29;;;;;;;5.68;1.83;;;19.50;99.90;;;;;;5075817;28;20492;-64
2022/06/09 11:50:00;;;;;;;5.45;1.63;;;19.20;99.90;;;;;;5093719;28;20052;-65
2022/06/09 11:52:48;;;;;;;7.10;2.10;;;19.30;99.90;;;;;;5093643;28;20043;-66
2022/06/09 11:55:57;;;;;;;7.43;2.05;;;19.10;99.90;;;;;;5093635;28;20048;-65
2022/06/09 11:58:34;;;;;;;8.23;2.00;;;19.00;99.90;;;;;;5093448;28;20087;-67
2022/06/09 12:01:31;;;;;;;5.05;1.50;;;19.20;99.90;;;;;;5093512;28;20047;-65
2022/06/09 12:04:43;;;;;;;7.38;2.05;;;19.10;99.90;;;;;;5087656;28;20067;-64
2022/06/09 12:07:40;;;;;;;8.40;1.63;;;19.30;99.90;;;;;;5094210;28;20044;-65
2022/06/09 12:10:42;;;;;;;6.03;1.70;;;19.40;99.90;;;;;;5108763;28;20486;-65
2022/06/09 12:13:23;;;;;;;8.55;2.10;;;19.40;99.90;;;;;;5113690;28;20056;-64
2022/06/09 12:15:51;;;;;;;9.20;1.90;;;19.30;99.90;;;;;;5113761;28;20040;-65
2022/06/09 12:18:18;;;;;;;6.65;1.65;;;19.30;99.90;;;;;;5111045;28;20081;-64
2022/06/09 12:20:47;;;;;;;5.70;1.90;;;19.10;99.90;;;;;;5093097;28;20044;-64
2022/06/09 12:23:39;;;;;;;6.03;1.70;;;19.30;99.90;;;;;;5093509;28;20370;-66
2022/06/09 12:26:10;;;;;;;7.78;1.90;;;19.50;99.90;;;;;;5089804;28;20182;-65
2022/06/09 12:28:57;;;;;;;8.98;2.00;;;19.80;99.90;;;;;;5091716;28;20087;-64
2022/06/09 12:31:22;;;;;;;10.45;2.25;;;19.90;99.90;;;;;;5091025;28;20091;-67
2022/06/09 12:34:00;;;;;;;10.10;2.25;;;19.80;99.90;;;;;;5091764;28;20084;-70
2022/06/09 12:36:41;;;;;;;13.77;2.30;;;19.60;99.90;;;;;;5092347;28;20051;-64
2022/06/09 12:39:23;;;;;;;7.88;2.53;;;19.60;99.90;;;;;;5091826;28;20040;-65
2022/06/09 12:42:15;;;;;;;12.80;2.53;;;19.60;99.90;;;;;;5092019;28;20102;-64
2022/06/09 12:45:07;;;;;;;9.18;2.58;;;20.00;99.90;;;;;;5092170;28;20112;-66
2022/06/09 12:47:33;;;;;;;8.38;2.58;;;19.70;99.90;;;;;;5059565;28;20087;-66
2022/06/09 12:50:19;;;;;;;10.55;2.45;;;19.60;99.90;;;;;;5091647;28;20090;-67
2022/06/09 12:52:47;;;;;;;11.48;2.15;;;19.70;99.90;;;;;;5091831;28;20488;-66
2022/06/09 12:55:22;;;;;;;8.25;2.25;;;19.20;99.90;;;;;;5091832;28;20091;-68
2022/06/09 12:57:56;;;;;;;9.77;2.35;;;19.40;99.90;;;;;;5092173;28;20094;-64
2022/06/09 13:00:34;;;;;;;9.55;2.20;;;19.10;99.90;;;;;;5073935;28;20423;-65
2022/06/09 13:03:00;;;;;;;10.55;2.65;;;17.90;99.90;;;;;;5091543;28;20511;-65
2022/06/09 13:05:34;;;;;;;6.25;2.20;;;19.50;99.90;;;;;;5092064;28;20044;-67
2022/06/09 13:08:12;;;;;;;11.50;2.42;;;19.20;99.90;;;;;;5092105;28;20052;-67
2022/06/09 13:10:40;;;;;;;11.95;2.05;;;19.70;99.90;;;;;;5092045;28;20075;-69
2022/06/09 13:13:20;;;;;;;9.90;2.67;;;19.60;99.90;;;;;;5091437;28;20534;-65
2022/06/09 13:15:53;;;;;;;3.72;1.90;;;20.10;99.90;;;;;;5091927;28;20055;-67
2022/06/09 13:18:44;;;;;;;4.93;1.98;;;19.80;99.90;;;;;;5091775;28;20044;-65
2022/06/09 13:21:24;;;;;;;11.13;2.58;;;19.70;99.90;;;;;;5092006;28;20040;-66
2022/06/09 13:23:56;;;;;;;7.97;1.90;;;19.50;99.90;;;;;;5091920;28;20138;-65
2022/06/09 13:26:28;;;;;;;8.52;2.25;;;19.40;99.90;;;;;;5091930;28;20048;-66
2022/06/09 13:29:00;;;;;;;7.60;1.90;;;19.60;99.90;;;;;;5091934;28;20117;-66
2022/06/09 13:31:34;;;;;;;8.48;2.28;;;19.10;99.90;;;;;;5091412;28;20092;-68
2022/06/09 13:34:12;;;;;;;9.35;2.15;;;19.10;99.90;;;;;;5091131;28;20102;-69